createdAt,value
2022-10-11T04:41:47.288Z,101581.22
2022-10-11T04:44:14.310Z,101592.84
2022-10-11T04:46:41.582Z,101603.13
2022-10-11T04:49:08.783Z,101610.97
2022-10-11T04:51:35.788Z,101617.47
2022-10-11T04:54:02.770Z,101614.28
2022-10-11T04:56:30.963Z,101615.91
2022-10-11T04:58:57.918Z,101631.00
2022-10-11T05:01:24.922Z,101639.38
2022-10-11T05:03:51.857Z,101645.84
2022-10-11T05:06:19.022Z,101653.16
2022-10-11T05:08:46.011Z,101664.69
2022-10-11T05:11:16.184Z,101662.56
2022-10-11T05:13:44.584Z,101671.69
2022-10-11T05:16:12.595Z,101679.50
2022-10-11T05:18:40.060Z,101690.22
2022-10-11T05:21:14.245Z,101697.78
2022-10-11T05:23:41.777Z,101708.25
2022-10-11T05:26:09.071Z,101708.22
2022-10-11T05:28:36.744Z,101719.50
2022-10-11T05:31:04.609Z,101726.72
2022-10-11T05:33:32.062Z,101727.22
2022-10-11T05:35:59.141Z,101741.19
2022-10-11T05:38:26.796Z,101738.50
2022-10-11T05:40:54.406Z,101741.16
2022-10-11T05:43:21.342Z,101753.47
2022-10-11T05:45:49.178Z,101767.97
2022-10-11T05:48:16.120Z,101765.28
2022-10-11T05:50:43.092Z,101761.47
2022-10-11T05:53:10.605Z,101765.78
2022-10-11T05:55:38.722Z,101787.84
2022-10-11T05:58:08.718Z,101791.59
2022-10-11T06:00:38.282Z,101792.66
2022-10-11T06:03:07.037Z,101797.72
2022-10-11T06:05:35.480Z,101791.53
2022-10-11T06:08:03.878Z,101806.59
2022-10-11T06:10:30.877Z,101802.59
2022-10-11T06:12:58.125Z,101804.72
2022-10-11T06:15:25.554Z,101813.09
2022-10-11T06:17:53.024Z,101810.41
2022-10-11T06:20:20.004Z,101812.84
2022-10-11T06:22:47.061Z,101823.59
2022-10-11T06:25:14.096Z,101806.41
2022-10-11T06:27:41.074Z,101826.91
2022-10-11T06:30:08.496Z,101826.19
2022-10-11T06:32:35.616Z,101830.78
2022-10-11T06:35:03.755Z,101840.50
2022-10-11T06:37:30.828Z,101849.69
2022-10-11T06:39:57.975Z,101839.72
2022-10-11T06:42:25.026Z,101856.94
2022-10-11T06:44:52.043Z,101862.13
2022-10-11T06:47:19.390Z,101867.75
2022-10-11T06:49:46.376Z,101873.72
2022-10-11T06:52:13.302Z,101891.78
2022-10-11T06:54:44.748Z,101879.69
2022-10-11T06:57:12.597Z,101893.72
2022-10-11T06:59:39.606Z,101895.34
2022-10-11T07:02:06.860Z,101903.72
2022-10-11T07:04:34.244Z,101919.09
2022-10-11T07:07:01.303Z,101921.56
2022-10-11T07:09:28.370Z,101931.84
2022-10-11T07:11:55.736Z,101941.31
2022-10-11T07:14:22.859Z,101957.47
2022-10-11T07:16:49.880Z,101955.03
2022-10-11T07:19:16.933Z,101968.72
2022-10-11T07:21:44.056Z,101966.31
2022-10-11T07:24:10.975Z,101978.19
2022-10-11T07:26:38.755Z,101970.63
2022-10-11T07:29:11.308Z,101982.44
2022-10-11T07:31:40.946Z,101987.88
2022-10-11T07:34:08.748Z,102000.56
2022-10-11T07:36:35.816Z,102000.03
2022-10-11T07:39:05.758Z,102008.66
2022-10-11T07:41:32.868Z,102017.84
2022-10-11T07:44:01.031Z,102031.59
2022-10-11T07:46:28.015Z,102033.50
2022-10-11T07:48:55.999Z,102035.69
2022-10-11T07:51:24.270Z,102045.16
2022-10-11T07:53:54.095Z,102049.53
2022-10-11T07:56:24.076Z,102052.75
2022-10-11T07:58:56.424Z,102057.41
2022-10-11T08:01:24.449Z,102072.00
2022-10-11T08:03:51.591Z,102076.31
2022-10-11T08:06:21.903Z,102093.84
2022-10-11T08:08:49.646Z,102100.88
2022-10-11T08:11:24.913Z,102119.75
2022-10-11T08:13:52.666Z,102136.81
2022-10-11T08:16:20.033Z,102137.06
2022-10-11T08:18:47.287Z,102137.06
2022-10-11T08:21:16.822Z,102161.88
2022-10-11T08:23:44.226Z,102173.50
2022-10-11T08:26:11.415Z,102183.25
2022-10-11T08:28:38.588Z,102181.63
2022-10-11T08:31:07.603Z,102203.50
2022-10-11T08:33:34.624Z,102203.75
2022-10-11T08:36:06.082Z,102219.44
2022-10-11T08:38:33.565Z,102222.13
2022-10-11T08:41:01.318Z,102217.00
2022-10-11T08:43:59.365Z,102222.94
2022-10-11T08:46:30.921Z,102228.91
2022-10-11T08:48:58.597Z,102233.47
2022-10-11T08:51:30.727Z,102226.41
2022-10-11T08:54:07.847Z,102230.47
2022-10-11T08:56:40.241Z,102231.81
2022-10-11T08:59:13.166Z,102243.72
2022-10-11T09:02:03.323Z,102244.25
2022-10-11T09:04:32.307Z,102246.97
2022-10-11T09:07:21.764Z,102256.41
2022-10-11T09:10:03.256Z,102252.03
2022-10-11T09:13:05.805Z,102264.78
2022-10-11T09:16:03.730Z,102269.53
2022-10-11T09:19:11.810Z,102277.09
2022-10-11T09:21:59.425Z,102286.50
2022-10-11T09:24:38.586Z,102299.94
2022-10-11T09:27:15.242Z,102302.34
2022-10-11T09:30:14.705Z,102314.75
2022-10-11T09:32:51.794Z,102315.78
2022-10-11T09:35:23.692Z,102312.25
2022-10-11T09:38:17.595Z,102333.00
2022-10-11T09:40:54.916Z,102336.47
2022-10-11T09:43:22.515Z,102332.88
2022-10-11T09:45:49.961Z,102332.06
2022-10-11T09:48:23.675Z,102349.59
2022-10-11T09:50:52.767Z,102350.84
2022-10-11T09:53:58.293Z,102362.31
2022-10-11T09:56:29.819Z,102341.25
2022-10-11T09:59:19.176Z,102368.72
2022-10-11T10:01:49.824Z,102360.84
2022-10-11T10:04:21.690Z,102373.88
2022-10-11T10:07:10.677Z,102374.41
2022-10-11T10:09:38.464Z,102387.88
2022-10-11T10:12:20.951Z,102369.69
2022-10-11T10:15:14.939Z,102383.00
2022-10-11T10:17:53.171Z,102392.56
2022-10-11T10:20:27.665Z,102385.38
2022-10-11T10:23:10.025Z,102400.22
2022-10-11T10:25:43.558Z,102396.38
2022-10-11T10:28:28.245Z,102395.88
2022-10-11T10:30:58.022Z,102397.00
2022-10-11T10:33:32.874Z,102405.00
2022-10-11T10:36:18.947Z,102412.38
2022-10-11T10:38:58.696Z,102411.34
2022-10-11T10:41:26.158Z,102426.97
2022-10-11T10:43:57.169Z,102421.91
2022-10-11T10:46:50.279Z,102431.06
2022-10-11T10:52:41.865Z,102438.91
2022-10-11T10:55:33.226Z,102441.97
2022-10-11T10:58:24.771Z,102447.28
2022-10-11T11:01:25.895Z,102445.47
2022-10-11T11:04:10.225Z,102443.34
2022-10-11T11:07:07.803Z,102444.28
2022-10-11T11:10:03.550Z,102440.38
2022-10-11T11:12:45.834Z,102443.56
2022-10-11T11:15:19.872Z,102439.22
2022-10-11T11:18:13.491Z,102439.13
2022-10-11T11:21:12.940Z,102439.00
2022-10-11T11:24:07.877Z,102442.28
2022-10-11T11:26:59.095Z,102435.38
2022-10-11T11:29:44.642Z,102436.06
2022-10-11T11:32:24.529Z,102441.53
2022-10-11T11:35:01.246Z,102426.94
2022-10-11T11:37:43.643Z,102426.44
2022-10-11T11:40:20.743Z,102424.03
2022-10-11T11:42:57.674Z,102429.03
2022-10-11T11:45:36.246Z,102415.22
2022-10-11T11:48:07.836Z,102414.88
2022-10-11T11:50:42.136Z,102427.88
2022-10-11T11:53:32.439Z,102425.44
2022-10-11T11:56:25.832Z,102415.53
2022-10-11T11:59:03.210Z,102422.44
2022-10-11T12:01:35.790Z,102418.19
2022-10-11T12:04:18.351Z,102417.00
2022-10-11T12:07:11.272Z,102428.06
2022-10-11T12:09:34.782Z,102429.31
2022-10-11T12:12:11.095Z,102432.00
2022-10-11T12:14:41.302Z,102443.97
2022-10-11T12:17:26.212Z,102431.34
2022-10-11T12:20:14.889Z,102429.47
2022-10-11T12:22:54.127Z,102435.88
2022-10-11T12:25:38.426Z,102430.16
2022-10-11T12:28:43.644Z,102429.44
2022-10-11T12:31:40.293Z,102428.44
2022-10-11T12:34:22.770Z,102434.97
2022-10-11T12:36:51.375Z,102434.09
2022-10-11T12:39:18.296Z,102436.28
2022-10-11T12:41:50.953Z,102434.25
2022-10-11T12:44:32.254Z,102438.88
2022-10-11T12:47:16.690Z,102430.84
2022-10-11T12:50:00.849Z,102423.25
2022-10-11T12:52:41.686Z,102415.38
2022-10-11T12:55:56.291Z,102399.59
2022-10-11T12:58:26.973Z,102396.41
2022-10-11T13:00:58.045Z,102407.63
2022-10-11T13:03:39.237Z,102409.63
2022-10-11T13:06:17.411Z,102408.63
2022-10-11T13:08:50.166Z,102416.78
2022-10-11T13:11:21.600Z,102417.38
2022-10-11T13:13:51.221Z,102403.75
2022-10-11T13:16:29.906Z,102397.19
2022-10-11T13:18:59.948Z,102406.66
2022-10-11T13:21:39.329Z,102400.84
2022-10-11T13:24:18.636Z,102405.59
2022-10-11T13:26:50.246Z,102409.63
2022-10-11T13:29:23.360Z,102399.25
2022-10-11T13:31:50.712Z,102415.75
2022-10-11T13:34:23.062Z,102411.94
2022-10-11T13:36:56.456Z,102414.88
2022-10-11T13:39:31.500Z,102415.81
2022-10-11T13:42:00.211Z,102423.59
2022-10-11T13:44:27.496Z,102414.31
2022-10-11T13:46:55.379Z,102422.06
2022-10-11T13:49:46.934Z,102424.13
2022-10-11T13:52:23.751Z,102423.41
2022-10-11T13:54:53.510Z,102417.53
2022-10-11T13:57:37.552Z,102418.34
2022-10-11T14:00:23.917Z,102425.84
2022-10-11T14:03:20.392Z,102414.88
2022-10-11T14:05:59.449Z,102418.63
2022-10-11T14:08:41.389Z,102411.34
2022-10-11T14:11:11.299Z,102409.03
2022-10-11T14:13:47.380Z,102415.91
2022-10-11T14:16:36.248Z,102416.97
2022-10-11T14:19:10.642Z,102411.94
2022-10-11T14:21:52.154Z,102417.59
2022-10-11T14:24:19.834Z,102417.44
2022-10-11T14:26:53.851Z,102413.44
2022-10-11T14:29:26.493Z,102416.53
2022-10-11T14:32:02.058Z,102412.72
2022-10-11T14:34:32.081Z,102409.41
2022-10-11T14:37:01.412Z,102417.44
2022-10-11T14:39:31.245Z,102407.28
2022-10-11T14:41:58.783Z,102408.16
2022-10-11T14:44:26.275Z,102403.22
2022-10-11T14:46:54.659Z,102409.19
2022-10-11T14:49:25.151Z,102403.75
2022-10-11T14:51:54.028Z,102408.34
2022-10-11T14:54:23.505Z,102407.53
2022-10-11T14:56:55.827Z,102410.38
2022-10-11T14:59:26.287Z,102410.00
2022-10-11T15:01:54.318Z,102407.28
2022-10-11T15:04:22.918Z,102416.81
2022-10-11T15:06:51.398Z,102411.91
2022-10-11T15:09:20.866Z,102411.75
2022-10-11T15:11:52.561Z,102416.84
2022-10-11T15:14:19.986Z,102423.31
2022-10-11T15:16:47.523Z,102418.72
2022-10-11T15:19:23.862Z,102420.19
2022-10-11T15:21:51.071Z,102413.63
2022-10-11T15:24:21.457Z,102419.91
2022-10-11T15:26:49.275Z,102412.69
2022-10-11T15:29:17.990Z,102405.56
2022-10-11T15:31:46.141Z,102402.03
2022-10-11T15:34:13.103Z,102402.78
2022-10-11T15:36:40.244Z,102393.44
2022-10-11T15:39:28.292Z,102402.94
2022-10-11T15:41:55.277Z,102399.69
2022-10-11T15:44:22.272Z,102400.84
2022-10-11T15:46:49.557Z,102405.31
2022-10-11T15:49:17.137Z,102392.88
2022-10-11T15:51:44.221Z,102395.16
2022-10-11T15:54:11.206Z,102406.28
2022-10-11T15:56:38.267Z,102393.13
2022-10-11T15:59:05.218Z,102406.66
2022-10-11T16:01:32.255Z,102385.66
2022-10-11T16:04:01.373Z,102405.75
2022-10-11T16:06:28.378Z,102393.81
2022-10-11T16:08:55.647Z,102393.81
2022-10-11T16:11:22.645Z,102395.75
2022-10-11T16:13:49.930Z,102392.25
2022-10-11T16:16:16.937Z,102396.13
2022-10-11T16:18:43.919Z,102387.47
2022-10-11T16:21:14.108Z,102405.91
2022-10-11T16:23:41.174Z,102399.69
2022-10-11T16:26:13.333Z,102403.47
2022-10-11T16:28:42.033Z,102409.84
2022-10-11T16:31:15.476Z,102401.22
2022-10-11T16:33:50.992Z,102413.41
2022-10-11T16:36:36.506Z,102404.97
2022-10-11T16:39:08.284Z,102392.09
2022-10-11T16:41:35.130Z,102406.38
2022-10-11T16:44:03.569Z,102405.59
2022-10-11T16:46:31.857Z,102403.22
2022-10-11T16:48:59.299Z,102408.00
2022-10-11T16:51:26.321Z,102405.31
2022-10-11T16:53:53.426Z,102406.97
2022-10-11T16:56:22.682Z,102403.50
2022-10-11T16:58:49.717Z,102407.25
2022-10-11T17:01:16.816Z,102397.50
2022-10-11T17:03:44.093Z,102397.56
2022-10-11T17:06:11.125Z,102407.84
2022-10-11T17:08:39.247Z,102397.53
2022-10-11T17:11:06.626Z,102404.59
2022-10-11T17:13:33.722Z,102409.47
2022-10-11T17:16:00.763Z,102399.75
2022-10-11T17:18:27.885Z,102404.84
2022-10-11T17:21:06.096Z,102401.34
2022-10-11T17:23:34.789Z,102409.19
2022-10-11T17:26:08.595Z,102403.53
2022-10-11T17:28:38.167Z,102404.38
2022-10-11T17:31:05.803Z,102407.72
2022-10-11T17:33:33.770Z,102397.22
2022-10-11T17:36:01.660Z,102400.22
2022-10-11T17:38:29.192Z,102387.75
2022-10-11T17:41:04.958Z,102396.72
2022-10-11T17:43:32.285Z,102385.63
2022-10-11T17:46:01.127Z,102405.16
2022-10-11T17:48:28.871Z,102392.44
2022-10-11T17:50:56.156Z,102387.00
2022-10-11T17:53:23.464Z,102392.97
2022-10-11T17:55:50.991Z,102389.19
2022-10-11T17:58:18.355Z,102378.34
2022-10-11T18:00:45.529Z,102372.94
2022-10-11T18:03:12.597Z,102372.13
2022-10-11T18:05:40.634Z,102362.09
2022-10-11T18:08:08.221Z,102358.84
2022-10-11T18:10:36.998Z,102359.41
2022-10-11T18:13:06.846Z,102352.41
2022-10-11T18:15:34.428Z,102350.69
2022-10-11T18:18:01.909Z,102357.47
2022-10-11T18:20:28.882Z,102352.59
2022-10-11T18:22:55.884Z,102339.88
2022-10-11T18:25:22.882Z,102349.03
2022-10-11T18:27:51.380Z,102346.84
2022-10-11T18:30:18.915Z,102352.31
2022-10-11T18:32:46.147Z,102348.44
2022-10-11T18:35:13.189Z,102345.19
2022-10-11T18:37:40.231Z,102350.31
2022-10-11T18:40:07.531Z,102350.22
2022-10-11T18:42:34.537Z,102348.69
2022-10-11T18:45:01.887Z,102351.31
2022-10-11T18:47:29.182Z,102349.16
2022-10-11T18:49:56.158Z,102344.72
2022-10-11T18:52:23.357Z,102330.34
2022-10-11T18:54:50.369Z,102334.34
2022-10-11T18:57:17.367Z,102344.06
2022-10-11T18:59:44.432Z,102339.50
2022-10-11T19:02:12.456Z,102331.66
2022-10-11T19:04:39.758Z,102334.88
2022-10-11T19:07:07.144Z,102333.38
2022-10-11T19:09:34.209Z,102332.28
2022-10-11T19:12:01.278Z,102324.69
2022-10-11T19:14:30.295Z,102326.84
2022-10-11T19:16:57.812Z,102327.94
2022-10-11T19:19:27.032Z,102324.19
2022-10-11T19:21:54.494Z,102323.34
2022-10-11T19:24:23.732Z,102325.78
2022-10-11T19:26:52.937Z,102328.75
2022-10-11T19:29:22.539Z,102339.63
2022-10-11T19:32:00.746Z,102326.88
2022-10-11T19:34:28.632Z,102324.25
2022-10-11T19:37:01.335Z,102319.63
2022-10-11T19:39:29.666Z,102328.03
2022-10-11T19:41:56.934Z,102316.13
2022-10-11T19:44:24.087Z,102310.19
2022-10-11T19:46:52.280Z,102310.19
2022-10-11T19:49:24.037Z,102311.03
2022-10-11T19:51:51.778Z,102314.28
2022-10-11T19:54:19.148Z,102308.56
2022-10-11T19:56:46.376Z,102311.03
2022-10-11T19:59:14.542Z,102313.53
2022-10-11T20:01:42.353Z,102315.41
2022-10-11T20:04:33.167Z,102307.53
2022-10-11T20:06:59.404Z,102304.34
2022-10-11T20:09:30.768Z,102296.25
2022-10-11T20:11:58.864Z,102301.94
2022-10-11T20:14:26.332Z,102303.63
2022-10-11T20:16:53.531Z,102295.59
2022-10-11T20:19:25.043Z,102293.66
2022-10-11T20:21:54.970Z,102293.66
2022-10-11T20:24:22.290Z,102287.19
2022-10-11T20:26:49.237Z,102290.44
2022-10-11T20:29:16.861Z,102295.38
2022-10-11T20:31:43.875Z,102295.44
2022-10-11T20:34:11.577Z,102298.13
2022-10-11T20:36:38.890Z,102289.00
2022-10-11T20:39:06.769Z,102294.41
2022-10-11T20:41:37.259Z,102282.56
2022-10-11T20:44:05.149Z,102255.06
2022-10-11T20:46:34.509Z,102241.00
2022-10-11T20:49:04.263Z,102238.31
2022-10-11T20:51:33.599Z,102239.38
2022-10-11T20:54:02.104Z,102229.66
2022-10-11T20:56:30.026Z,102233.72
2022-10-11T20:58:58.473Z,102243.19
2022-10-11T21:01:34.761Z,102235.91
2022-10-11T21:04:02.133Z,102231.31
2022-10-11T21:06:30.733Z,102220.78
2022-10-11T21:09:01.296Z,102216.19
2022-10-11T21:11:31.178Z,102220.00
2022-10-11T21:14:03.123Z,102218.06
2022-10-11T21:16:30.293Z,102217.28
2022-10-11T21:18:59.110Z,102222.13
2022-10-11T21:21:27.788Z,102221.06
2022-10-11T21:23:58.854Z,102226.97
2022-10-11T21:26:27.370Z,102226.75
2022-10-11T21:28:54.787Z,102219.69
2022-10-11T21:31:23.013Z,102230.25
2022-10-11T21:33:50.315Z,102219.41
2022-10-11T21:36:19.758Z,102217.78
2022-10-11T21:38:47.278Z,102221.00
2022-10-11T21:41:20.204Z,102222.63
2022-10-11T21:43:47.667Z,102231.53
2022-10-11T21:46:23.776Z,102228.81
2022-10-11T21:48:52.215Z,102229.09
2022-10-11T21:51:24.758Z,102222.31
2022-10-11T21:53:52.505Z,102222.56
2022-10-11T21:56:19.731Z,102214.75
2022-10-11T21:58:48.144Z,102214.75
2022-10-11T22:01:16.661Z,102208.25
2022-10-11T22:03:44.108Z,102200.97
2022-10-11T22:06:11.300Z,102202.34
2022-10-11T22:08:38.946Z,102201.75
2022-10-11T22:11:06.721Z,102197.13
2022-10-11T22:13:34.713Z,102192.00
2022-10-11T22:16:09.838Z,102190.69
2022-10-11T22:18:37.171Z,102184.97
2022-10-11T22:21:12.774Z,102173.63
2022-10-11T22:23:41.225Z,102174.97
2022-10-11T22:26:20.739Z,102173.91
2022-10-11T22:28:47.973Z,102179.78
2022-10-11T22:31:17.725Z,102173.31
2022-10-11T22:36:18.920Z,102176.53
